Time;durP1;ratioP1;P1;durP2;ratioP2;P2;SDS_P1;SDS_P2;PMS_P1;PMS_P2;Temp;Humidity;BMP_temperature;BMP_pressure;BME280_temperature;BME280_humidity;BME280_pressure;Samples;Min_cycle;Max_cycle;Signal;HPM_P1;HPM_P2
2023/06/30 00:01:39;;;;;;;5.22;0.73;;;;;;;14.06;56.08;101255.25;4967093;28;20034;-73
2023/06/30 00:04:16;;;;;;;5.20;0.98;;;;;;;14.07;55.91;101254.28;4971292;28;20041;-72
2023/06/30 00:06:43;;;;;;;6.97;0.85;;;;;;;14.07;55.31;101246.41;4967649;28;20044;-72
2023/06/30 00:09:11;;;;;;;4.05;0.82;;;;;;;14.02;56.01;101251.91;4967720;28;20046;-73
2023/06/30 00:11:41;;;;;;;3.80;0.80;;;;;;;14.06;55.63;101247.34;4967604;28;20144;-72
2023/06/30 00:14:09;;;;;;;4.22;0.77;;;;;;;14.03;55.49;101244.84;4971657;28;20041;-69
2023/06/30 00:16:37;;;;;;;1.50;1.02;;;;;;;13.93;56.07;101242.69;4965102;28;20155;-69
2023/06/30 00:19:04;;;;;;;4.63;1.10;;;;;;;13.83;56.47;101246.69;4968733;28;20050;-69
2023/06/30 00:21:37;;;;;;;2.92;0.60;;;;;;;13.86;56.11;101243.06;4969584;28;20038;-70
2023/06/30 00:24:04;;;;;;;4.40;0.80;;;;;;;13.82;56.14;101244.97;4966083;28;20058;-71
2023/06/30 00:26:32;;;;;;;5.22;1.25;;;;;;;13.70;56.58;101256.06;4967204;28;20045;-70
2023/06/30 00:29:00;;;;;;;4.22;0.90;;;;;;;13.64;56.86;101256.38;4964533;28;20544;-70
2023/06/30 00:31:25;;;;;;;1.52;0.60;;;;;;;13.64;56.98;101261.63;4964675;28;20408;-71
2023/06/30 00:33:51;;;;;;;4.28;0.88;;;;;;;13.60;57.03;101254.78;4965412;28;20038;-71
2023/06/30 00:36:19;;;;;;;2.88;1.15;;;;;;;13.66;56.73;101254.50;4967357;28;20068;-71
2023/06/30 00:38:44;;;;;;;1.50;1.25;;;;;;;13.59;56.78;101258.38;4982421;28;20076;-72
2023/06/30 00:41:11;;;;;;;4.95;1.17;;;;;;;13.54;56.92;101255.91;4968507;28;20038;-71
2023/06/30 00:43:39;;;;;;;1.92;1.13;;;;;;;13.52;57.33;101257.75;4966368;28;20065;-71
2023/06/30 00:46:05;;;;;;;2.50;1.20;;;;;;;13.46;56.99;101261.50;4966911;28;20105;-71
2023/06/30 00:48:31;;;;;;;1.73;1.27;;;;;;;13.43;57.06;101258.16;4950658;28;20042;-70
2023/06/30 00:50:57;;;;;;;7.13;1.58;;;;;;;13.42;57.24;101252.06;4954753;28;20034;-72
2023/06/30 00:53:24;;;;;;;4.75;1.08;;;;;;;13.40;57.32;101261.78;4961090;28;20053;-71
2023/06/30 00:55:54;;;;;;;4.00;1.35;;;;;;;13.36;57.20;101260.25;4967942;28;20038;-71
2023/06/30 00:58:20;;;;;;;8.73;1.90;;;;;;;13.30;57.56;101263.13;4968074;28;20046;-71
2023/06/30 01:00:46;;;;;;;7.00;1.98;;;;;;;13.38;57.27;101258.38;4968478;28;20058;-71
2023/06/30 01:03:33;;;;;;;4.53;1.35;;;;;;;13.40;57.36;101258.31;4967602;28;20062;-71
2023/06/30 01:06:14;;;;;;;6.50;1.10;;;;;;;13.38;57.30;101255.75;4966699;28;20412;-71
2023/06/30 01:09:02;;;;;;;3.15;1.10;;;;;;;13.39;57.11;101265.34;4965823;28;20038;-71
2023/06/30 01:11:32;;;;;;;3.72;1.25;;;;;;;13.30;57.32;101257.88;4969919;28;20039;-70
2023/06/30 01:14:05;;;;;;;4.68;1.40;;;;;;;13.32;57.18;101266.56;4960338;28;20581;-71
2023/06/30 01:16:34;;;;;;;1.83;1.13;;;;;;;13.34;57.06;101256.84;4965850;28;20076;-71
2023/06/30 01:19:06;;;;;;;4.43;0.80;;;;;;;13.32;56.96;101253.41;4944221;28;20074;-71
2023/06/30 01:21:32;;;;;;;2.28;1.55;;;;;;;13.30;57.12;101258.72;4986368;28;20022;-72
2023/06/30 01:24:17;;;;;;;2.47;0.95;;;;;;;13.26;57.08;101264.19;4970811;28;20038;-74
2023/06/30 01:26:43;;;;;;;2.17;1.13;;;;;;;13.27;56.83;101258.00;4969753;28;20516;-75
2023/06/30 01:29:11;;;;;;;2.67;1.52;;;;;;;13.16;56.79;101260.25;4984918;28;20039;-74
2023/06/30 01:31:46;;;;;;;2.55;1.13;;;;;;;13.11;56.98;101258.69;4967386;28;20407;-76
2023/06/30 01:34:12;;;;;;;3.60;1.40;;;;;;;13.11;57.12;101255.22;4972936;28;20039;-68
2023/06/30 01:36:38;;;;;;;2.88;1.98;;;;;;;13.06;57.21;101254.59;4968315;28;20042;-69
2023/06/30 01:39:06;;;;;;;4.78;1.65;;;;;;;13.03;57.18;101255.59;4986123;28;20074;-68
2023/06/30 01:41:32;;;;;;;2.50;1.13;;;;;;;13.08;57.01;101263.25;4969259;28;20122;-70
2023/06/30 01:44:02;;;;;;;4.25;1.70;;;;;;;12.99;57.32;101264.50;4968519;28;20152;-69
2023/06/30 01:46:27;;;;;;;3.33;1.60;;;;;;;12.96;57.20;101271.63;4969169;28;20034;-70
2023/06/30 01:48:55;;;;;;;7.72;2.95;;;;;;;12.93;57.27;101266.53;4968536;28;20034;-69
2023/06/30 01:51:23;;;;;;;3.60;1.25;;;;;;;12.87;56.82;101268.53;4971710;28;20042;-69
2023/06/30 01:53:49;;;;;;;6.43;1.13;;;;;;;12.89;57.06;101268.44;4951628;28;20049;-70
2023/06/30 01:56:25;;;;;;;5.10;1.38;;;;;;;12.78;56.97;101262.81;4986901;28;20865;-74
2023/06/30 01:58:51;;;;;;;2.67;1.23;;;;;;;12.70;57.39;101273.63;4955647;28;20051;-71
2023/06/30 02:01:17;;;;;;;5.18;1.73;;;;;;;12.61;57.32;101266.97;4973771;28;20070;-70
2023/06/30 02:03:44;;;;;;;3.95;1.33;;;;;;;12.75;57.19;101262.94;4970501;28;20045;-71
2023/06/30 02:06:10;;;;;;;2.33;0.98;;;;;;;12.77;57.05;101263.72;4969452;28;20070;-70
2023/06/30 02:08:35;;;;;;;3.88;1.92;;;;;;;12.83;57.06;101263.47;4972529;28;20633;-73
2023/06/30 02:11:01;;;;;;;3.67;1.73;;;;;;;12.72;57.08;101257.84;4969569;28;20034;-71
2023/06/30 02:13:29;;;;;;;1.67;1.58;;;;;;;12.73;57.20;101263.00;4959755;28;20076;-71
2023/06/30 02:15:56;;;;;;;7.40;1.95;;;;;;;12.71;57.33;101254.34;4973061;28;20038;-71
2023/06/30 02:18:22;;;;;;;2.63;1.60;;;;;;;12.64;57.30;101251.09;4968461;28;20042;-70
2023/06/30 02:20:47;;;;;;;3.80;1.25;;;;;;;12.59;57.31;101255.69;4975238;28;20030;-74
2023/06/30 02:23:13;;;;;;;2.33;1.00;;;;;;;12.59;57.45;101252.22;4970303;28;20042;-73
2023/06/30 02:25:38;;;;;;;10.63;1.63;;;;;;;12.65;57.47;101251.97;4986358;28;20401;-73
2023/06/30 02:28:06;;;;;;;3.42;0.90;;;;;;;12.67;56.93;101247.53;4971165;28;20095;-74
2023/06/30 02:30:31;;;;;;;5.15;1.38;;;;;;;12.63;57.03;101241.53;4977158;28;20037;-73
2023/06/30 02:32:57;;;;;;;4.40;1.45;;;;;;;12.58;56.97;101242.66;4952055;28;20035;-74
2023/06/30 02:35:23;;;;;;;3.00;1.15;;;;;;;12.54;57.05;101236.69;4971288;28;20042;-73
2023/06/30 02:37:48;;;;;;;1.70;0.95;;;;;;;12.45;57.19;101240.56;4944462;28;20034;-73
2023/06/30 02:40:18;;;;;;;2.38;1.20;;;;;;;12.45;57.15;101247.56;4970724;28;20032;-73
2023/06/30 02:42:47;;;;;;;4.60;1.73;;;;;;;12.37;57.58;101249.66;4965627;28;20043;-73
2023/06/30 02:45:17;;;;;;;2.25;1.40;;;;;;;12.40;57.48;101254.75;4967939;28;20046;-74
2023/06/30 02:47:48;;;;;;;8.00;2.33;;;;;;;12.39;57.16;101258.31;4974589;28;20034;-73
2023/06/30 02:50:29;;;;;;;3.65;1.83;;;;;;;12.30;57.64;101262.16;4988657;28;20061;-74
2023/06/30 02:52:55;;;;;;;3.20;1.77;;;;;;;12.24;57.44;101255.38;4984204;28;20090;-74
2023/06/30 02:55:21;;;;;;;4.97;1.40;;;;;;;12.17;57.82;101259.19;4971672;28;20038;-73
2023/06/30 02:57:49;;;;;;;7.28;2.97;;;;;;;11.97;58.74;101264.38;4970220;28;20037;-73
2023/06/30 03:00:18;;;;;;;4.15;1.60;;;;;;;12.13;58.00;101262.84;4969484;28;20170;-73
2023/06/30 03:02:50;;;;;;;8.52;1.60;;;;;;;12.14;57.75;101259.31;4972056;28;20026;-72
2023/06/30 03:05:22;;;;;;;5.32;1.58;;;;;;;12.09;57.82;101261.28;4969829;28;20038;-73
2023/06/30 03:07:47;;;;;;;2.75;1.75;;;;;;;12.12;57.59;101255.91;4968991;28;20038;-73
2023/06/30 03:10:17;;;;;;;4.40;2.17;;;;;;;12.07;57.77;101258.72;4968895;28;20680;-73
2023/06/30 03:12:42;;;;;;;3.85;2.13;;;;;;;12.06;57.85;101262.22;4967976;28;20128;-71
2023/06/30 03:15:08;;;;;;;4.50;2.75;;;;;;;12.00;58.49;101256.38;4968965;28;20534;-69
2023/06/30 03:17:36;;;;;;;4.65;2.33;;;;;;;11.98;57.99;101253.84;4968230;28;20076;-70
2023/06/30 03:20:08;;;;;;;5.15;2.55;;;;;;;11.93;58.62;101260.16;4983364;28;20054;-70
2023/06/30 03:22:36;;;;;;;3.35;2.10;;;;;;;12.03;58.54;101243.19;4968439;28;20150;-70
2023/06/30 03:25:03;;;;;;;4.90;1.85;;;;;;;12.06;58.42;101245.66;4965557;28;20045;-69
2023/06/30 03:27:29;;;;;;;2.95;1.90;;;;;;;12.18;58.62;101239.94;4967235;28;20049;-69
2023/06/30 03:29:55;;;;;;;4.72;2.10;;;;;;;12.24;58.32;101238.81;4964054;28;20034;-70
2023/06/30 03:32:23;;;;;;;5.13;2.42;;;;;;;12.23;58.20;101240.59;4967059;28;20495;-70
2023/06/30 03:34:49;;;;;;;5.95;3.03;;;;;;;12.24;58.05;101237.03;4966377;28;20161;-69
2023/06/30 03:37:15;;;;;;;2.85;1.73;;;;;;;12.34;57.97;101234.06;4964585;28;20170;-70
2023/06/30 03:39:43;;;;;;;4.72;2.15;;;;;;;12.34;57.84;101242.78;4960148;28;20066;-70
2023/06/30 03:42:08;;;;;;;6.20;2.10;;;;;;;12.41;57.86;101235.50;4971215;28;20153;-69
2023/06/30 03:44:36;;;;;;;3.00;2.55;;;;;;;12.37;57.78;101239.16;4958739;28;20050;-70
2023/06/30 03:47:04;;;;;;;3.58;2.45;;;;;;;12.48;57.53;101239.56;4968357;28;20038;-69
2023/06/30 03:49:30;;;;;;;4.93;2.53;;;;;;;12.47;57.49;101243.97;4969807;28;20037;-70
2023/06/30 03:51:57;;;;;;;5.45;2.28;;;;;;;12.47;57.30;101241.34;4953143;28;20117;-70
2023/06/30 03:54:23;;;;;;;3.78;2.13;;;;;;;12.53;57.35;101242.84;4965333;28;20738;-71
2023/06/30 03:56:59;;;;;;;6.00;2.25;;;;;;;12.41;57.14;101243.38;4968468;28;20034;-70
2023/06/30 03:59:25;;;;;;;2.40;1.73;;;;;;;12.38;57.31;101240.84;4969275;28;20049;-70
2023/06/30 04:01:50;;;;;;;4.05;1.77;;;;;;;12.44;57.30;101243.22;4966417;28;20058;-70
2023/06/30 04:04:16;;;;;;;2.22;1.67;;;;;;;12.43;56.80;101245.00;4944127;28;20418;-71
2023/06/30 04:06:44;;;;;;;4.47;1.77;;;;;;;12.36;56.83;101242.72;4968634;28;21152;-70
2023/06/30 04:09:09;;;;;;;3.13;1.55;;;;;;;12.40;57.13;101245.16;4968069;28;20490;-71
2023/06/30 04:11:35;;;;;;;3.85;1.63;;;;;;;12.46;57.14;101244.03;4966461;28;20044;-71
2023/06/30 04:14:00;;;;;;;3.17;1.80;;;;;;;12.48;56.90;101247.44;4960605;28;20066;-71
2023/06/30 04:16:26;;;;;;;1.77;1.67;;;;;;;12.50;57.08;101245.59;4971215;28;20414;-72
2023/06/30 04:18:53;;;;;;;2.72;2.20;;;;;;;12.41;57.16;101235.50;4966963;28;20125;-71
2023/06/30 04:21:19;;;;;;;3.13;1.58;;;;;;;12.52;57.08;101238.53;4964584;28;20113;-72
2023/06/30 04:23:47;;;;;;;2.83;1.80;;;;;;;12.53;57.01;101244.63;4959567;28;20561;-71
2023/06/30 04:26:17;;;;;;;5.70;2.55;;;;;;;12.58;56.81;101243.53;4952177;28;20030;-70
2023/06/30 04:28:44;;;;;;;3.17;2.08;;;;;;;12.62;56.65;101234.56;4970458;28;20975;-71
2023/06/30 04:31:09;;;;;;;3.25;1.73;;;;;;;12.62;56.64;101241.59;4970348;28;20034;-73
2023/06/30 04:33:37;;;;;;;5.43;1.63;;;;;;;12.34;57.29;101245.41;4965022;28;20081;-71
2023/06/30 04:36:03;;;;;;;4.25;1.63;;;;;;;12.50;57.63;101245.59;4969021;28;20689;-70
2023/06/30 04:38:30;;;;;;;6.00;2.22;;;;;;;12.52;57.44;101249.00;4962547;28;20957;-72
2023/06/30 04:40:58;;;;;;;5.32;1.58;;;;;;;12.65;57.05;101250.19;4962746;28;20034;-71
2023/06/30 04:43:24;;;;;;;4.60;2.00;;;;;;;12.64;56.79;101253.72;4962543;28;20427;-70
2023/06/30 04:45:52;;;;;;;5.55;1.67;;;;;;;12.68;57.03;101255.31;4965531;28;20114;-73
2023/06/30 04:48:17;;;;;;;4.18;1.85;;;;;;;12.65;56.96;101244.94;4975990;28;20107;-73
2023/06/30 04:50:45;;;;;;;4.05;1.92;;;;;;;12.75;56.85;101248.06;4982457;28;20073;-71
2023/06/30 04:53:11;;;;;;;2.80;1.85;;;;;;;12.90;56.61;101257.03;4981638;28;20053;-73
2023/06/30 04:55:36;;;;;;;1.95;1.40;;;;;;;12.77;56.19;101255.88;4966766;28;20268;-71
2023/06/30 04:58:02;;;;;;;3.90;1.60;;;;;;;12.78;57.12;101265.44;4971147;28;20057;-75
2023/06/30 05:00:27;;;;;;;8.10;1.60;;;;;;;12.89;56.30;101260.56;4969599;28;20113;-71
2023/06/30 05:02:56;;;;;;;4.65;1.50;;;;;;;12.94;56.70;101255.13;4967683;28;20157;-72
2023/06/30 05:05:21;;;;;;;4.15;1.65;;;;;;;12.88;56.86;101262.34;4968430;28;20041;-74
2023/06/30 05:07:47;;;;;;;10.65;2.17;;;;;;;12.93;56.40;101259.50;4968602;28;20034;-70
2023/06/30 05:10:15;;;;;;;3.40;1.55;;;;;;;13.19;56.15;101255.75;4962316;28;20388;-71
2023/06/30 05:12:48;;;;;;;5.03;2.25;;;;;;;13.67;54.88;101256.19;4969962;28;20034;-74
2023/06/30 05:15:14;;;;;;;4.32;1.65;;;;;;;14.29;54.13;101252.31;4969363;28;20435;-70
2023/06/30 05:17:39;;;;;;;4.10;2.00;;;;;;;15.12;51.68;101261.22;4967620;28;20030;-71
2023/06/30 05:20:08;;;;;;;5.35;1.70;;;;;;;15.11;50.02;101253.44;4960833;28;20046;-72
2023/06/30 05:22:34;;;;;;;4.38;1.50;;;;;;;14.96;51.61;101257.72;4971971;28;20022;-73
2023/06/30 05:25:00;;;;;;;3.58;1.20;;;;;;;15.11;51.53;101264.81;4972981;28;20045;-74
2023/06/30 05:27:28;;;;;;;4.80;1.08;;;;;;;15.66;50.76;101257.50;4982227;28;20450;-75
2023/06/30 05:29:56;;;;;;;3.20;1.60;;;;;;;16.40;48.51;101256.84;4987628;28;20066;-75
2023/06/30 05:32:22;;;;;;;6.25;1.65;;;;;;;16.40;48.46;101252.41;4970190;28;20050;-72
2023/06/30 05:34:51;;;;;;;4.15;1.67;;;;;;;17.64;45.40;101251.91;4968585;28;20092;-75
2023/06/30 05:37:17;;;;;;;4.13;1.45;;;;;;;18.43;43.80;101250.31;4969224;28;20125;-74
2023/06/30 05:39:42;;;;;;;8.98;1.77;;;;;;;18.68;41.64;101238.88;4968530;28;20069;-75
2023/06/30 05:42:08;;;;;;;4.30;0.95;;;;;;;18.60;43.78;101245.66;4988419;28;20034;-71
2023/06/30 05:44:33;;;;;;;5.72;0.95;;;;;;;19.74;39.59;101253.59;4963036;28;20101;-70
2023/06/30 05:47:01;;;;;;;4.35;0.77;;;;;;;20.90;39.32;101250.13;4968410;28;20030;-70
2023/06/30 05:49:27;;;;;;;4.68;1.23;;;;;;;21.57;37.47;101248.41;4964533;28;20035;-70
2023/06/30 05:51:55;;;;;;;10.90;2.17;;;;;;;23.12;34.31;101246.06;4966204;28;20034;-70
2023/06/30 05:54:20;;;;;;;5.80;1.33;;;;;;;21.77;35.83;101244.13;4962972;28;20608;-71
2023/06/30 05:56:50;;;;;;;2.50;0.52;;;;;;;21.74;37.96;101250.56;4964464;28;20049;-71
2023/06/30 05:59:15;;;;;;;4.85;0.70;;;;;;;23.90;34.60;101250.72;4964907;28;20069;-70
2023/06/30 06:01:41;;;;;;;3.95;0.60;;;;;;;24.02;33.47;101247.78;4980998;28;20030;-70
2023/06/30 06:04:10;;;;;;;6.70;1.10;;;;;;;24.43;33.05;101247.63;4955998;28;20035;-70
2023/06/30 06:06:39;;;;;;;2.42;0.60;;;;;;;25.52;29.90;101247.09;4964112;28;20034;-71
2023/06/30 06:09:04;;;;;;;4.05;0.65;;;;;;;24.76;30.91;101253.47;4963034;28;20034;-68
2023/06/30 06:11:33;;;;;;;5.13;0.63;;;;;;;22.81;32.84;101250.53;4965918;28;20045;-68
2023/06/30 06:13:58;;;;;;;2.25;0.80;;;;;;;22.04;35.31;101254.31;4963388;28;20038;-69
2023/06/30 06:16:26;;;;;;;2.15;0.85;;;;;;;23.47;34.66;101257.25;4964668;28;20088;-69
2023/06/30 06:18:54;;;;;;;2.25;0.40;;;;;;;25.41;31.82;101256.13;4957356;28;20042;-69
2023/06/30 06:21:20;;;;;;;2.90;0.70;;;;;;;26.11;28.84;101253.69;4968522;28;20085;-69
2023/06/30 06:23:49;;;;;;;5.32;0.82;;;;;;;26.58;29.95;101250.72;4966927;28;20097;-68
2023/06/30 06:26:14;;;;;;;6.57;0.40;;;;;;;27.82;27.33;101260.09;4969507;28;20041;-68
2023/06/30 06:28:40;;;;;;;5.35;0.57;;;;;;;28.14;26.01;101261.97;4968219;28;20039;-68
2023/06/30 06:31:05;;;;;;;1.35;0.20;;;;;;;26.97;27.00;101260.97;4970534;28;20027;-70
2023/06/30 06:33:31;;;;;;;1.13;0.20;;;;;;;28.46;26.33;101265.66;4960748;28;20496;-70
2023/06/30 06:35:56;;;;;;;6.32;0.52;;;;;;;28.02;25.49;101266.00;4978457;28;20037;-70
2023/06/30 06:38:22;;;;;;;0.77;0.22;;;;;;;24.99;29.44;101273.50;4962760;28;20149;-70
2023/06/30 06:40:48;;;;;;;5.38;0.40;;;;;;;22.52;33.18;101263.69;4979270;28;20061;-70
2023/06/30 06:43:13;;;;;;;3.97;1.00;;;;;;;21.15;35.94;101272.13;4982779;28;20116;-69
2023/06/30 06:45:41;;;;;;;2.63;0.38;;;;;;;19.94;38.37;101282.16;4970061;28;20035;-70
2023/06/30 06:48:22;;;;;;;2.75;0.28;;;;;;;19.03;39.70;101275.38;4960224;28;20038;-70
2023/06/30 06:50:54;;;;;;;2.28;0.50;;;;;;;18.66;41.26;101277.00;4988520;28;20038;-70
2023/06/30 06:53:27;;;;;;;3.55;0.43;;;;;;;18.41;41.31;101272.53;4968686;28;20053;-70
2023/06/30 06:55:54;;;;;;;2.15;0.20;;;;;;;18.10;41.68;101276.34;4968602;28;20034;-69
2023/06/30 06:58:22;;;;;;;2.63;0.98;;;;;;;17.85;42.87;101280.56;4968568;28;20075;-69
2023/06/30 07:00:52;;;;;;;6.57;0.90;;;;;;;17.56;43.93;101280.63;4971245;28;20038;-68
2023/06/30 07:03:20;;;;;;;4.03;0.65;;;;;;;17.72;44.46;101282.31;4969216;28;20046;-69
2023/06/30 07:05:48;;;;;;;3.20;0.35;;;;;;;17.61;45.34;101278.53;4972385;28;20038;-69
2023/06/30 07:08:19;;;;;;;3.42;0.40;;;;;;;18.17;43.89;101277.63;4963837;28;20046;-69
2023/06/30 07:10:46;;;;;;;4.40;0.85;;;;;;;20.55;40.65;101276.72;4966621;28;20411;-69
2023/06/30 07:13:15;;;;;;;3.75;0.38;;;;;;;21.35;36.48;101273.19;4972218;28;20151;-69
2023/06/30 07:15:44;;;;;;;1.58;0.10;;;;;;;19.95;36.17;101265.28;4988279;28;20037;-70
2023/06/30 07:18:11;;;;;;;2.28;0.35;;;;;;;19.60;37.09;101271.34;4970396;28;20042;-69
2023/06/30 07:20:38;;;;;;;1.85;0.20;;;;;;;19.11;37.39;101276.63;4969729;28;20533;-70
2023/06/30 07:23:04;;;;;;;4.13;0.20;;;;;;;18.94;38.38;101275.13;4961505;28;20038;-68
2023/06/30 07:25:30;;;;;;;1.33;0.20;;;;;;;20.93;36.47;101278.28;4982155;28;20490;-69
2023/06/30 07:27:57;;;;;;;1.27;0.55;;;;;;;22.94;32.75;101260.97;4968886;28;20301;-69
2023/06/30 07:30:26;;;;;;;4.45;0.20;;;;;;;24.70;29.02;101262.06;4967927;28;20108;-69
2023/06/30 07:32:53;;;;;;;2.45;0.20;;;;;;;25.55;28.14;101254.81;4967760;28;20603;-69
2023/06/30 07:35:20;;;;;;;1.83;0.10;;;;;;;24.24;28.59;101262.69;4969382;28;20407;-70
2023/06/30 07:37:46;;;;;;;3.05;0.20;;;;;;;25.22;28.23;101254.44;4973107;28;20062;-69
2023/06/30 07:40:13;;;;;;;3.05;0.30;;;;;;;24.67;29.21;101263.19;4972560;28;20042;-69
2023/06/30 07:42:39;;;;;;;2.65;0.40;;;;;;;24.84;29.04;101258.94;4966343;28;20432;-70
2023/06/30 07:45:11;;;;;;;3.33;0.30;;;;;;;25.88;26.06;101248.78;4968125;28;20137;-69
2023/06/30 07:47:37;;;;;;;1.83;0.30;;;;;;;23.92;30.05;101262.94;4967899;28;20038;-69
2023/06/30 07:50:11;;;;;;;1.55;0.30;;;;;;;21.88;33.53;101256.56;4977112;28;20061;-70
2023/06/30 07:52:50;;;;;;;2.85;0.20;;;;;;;20.26;35.24;101260.34;4966698;28;20054;-69
2023/06/30 07:55:17;;;;;;;1.50;0.20;;;;;;;19.38;37.16;101257.91;4968066;28;20043;-69
2023/06/30 07:57:44;;;;;;;3.28;0.30;;;;;;;19.09;37.84;101258.16;4966310;28;20042;-70
2023/06/30 08:00:15;;;;;;;4.78;0.20;;;;;;;18.67;38.15;101258.34;4969938;28;20157;-69
2023/06/30 08:02:41;;;;;;;;;;;;;;;18.53;39.11;101260.25;4965055;28;20329;-69
2023/06/30 08:05:07;;;;;;;1.17;0.32;;;;;;;18.34;40.57;101260.63;4987417;28;19957;-70
2023/06/30 08:07:33;;;;;;;0.32;0.20;;;;;;;18.18;40.06;101258.13;4964481;28;20092;-69
2023/06/30 08:09:59;;;;;;;1.17;0.25;;;;;;;17.92;40.15;101258.06;4967457;28;20507;-69
2023/06/30 08:12:24;;;;;;;2.78;0.40;;;;;;;17.39;40.10;101265.81;4965868;28;20042;-68
2023/06/30 08:14:50;;;;;;;1.17;0.38;;;;;;;17.31;40.58;101265.44;4968135;28;20052;-69
2023/06/30 08:17:15;;;;;;;1.23;0.20;;;;;;;17.10;41.23;101266.78;4966842;28;20034;-69
2023/06/30 08:19:44;;;;;;;2.97;0.47;;;;;;;16.91;41.65;101267.91;4977094;28;20046;-68
2023/06/30 08:22:18;;;;;;;1.55;0.20;;;;;;;16.77;42.33;101276.63;4961523;28;20509;-70
2023/06/30 08:24:43;;;;;;;3.03;0.20;;;;;;;16.64;43.38;101275.63;4960455;28;20045;-68
2023/06/30 08:27:09;;;;;;;0.88;0.30;;;;;;;16.65;43.55;101277.34;4961767;28;20026;-70
2023/06/30 08:29:35;;;;;;;1.30;0.50;;;;;;;16.62;44.35;101273.09;4954713;28;20510;-70
2023/06/30 08:32:02;;;;;;;0.68;0.30;;;;;;;16.53;45.22;101280.69;4966363;28;20034;-70
2023/06/30 08:34:28;;;;;;;2.65;0.13;;;;;;;16.54;45.54;101282.41;4959347;28;20133;-70
2023/06/30 08:36:56;;;;;;;0.73;0.20;;;;;;;16.14;46.71;101288.19;4960325;28;20030;-69
2023/06/30 08:39:23;;;;;;;1.85;0.40;;;;;;;15.59;48.35;101286.84;4958152;28;20185;-69
2023/06/30 08:41:53;;;;;;;2.95;0.30;;;;;;;15.62;49.49;101282.31;4960410;28;20372;-69
2023/06/30 08:44:23;;;;;;;3.35;0.30;;;;;;;15.23;49.23;101281.75;4955827;28;20514;-69
2023/06/30 08:46:51;;;;;;;3.72;0.40;;;;;;;15.32;48.94;101283.91;4954189;28;20752;-68
2023/06/30 08:49:17;;;;;;;1.15;0.30;;;;;;;15.53;48.78;101279.28;4955487;28;20050;-68
2023/06/30 08:51:44;;;;;;;2.00;0.20;;;;;;;15.63;48.86;101281.41;4953585;28;20046;-69
2023/06/30 08:54:10;;;;;;;2.25;0.50;;;;;;;15.88;47.45;101280.88;4939442;28;20053;-68
2023/06/30 08:56:41;;;;;;;3.53;0.10;;;;;;;15.97;48.21;101283.00;4951507;28;20189;-69
2023/06/30 08:59:07;;;;;;;3.40;0.40;;;;;;;16.03;47.34;101282.69;4957403;28;20153;-70
2023/06/30 09:01:33;;;;;;;0.90;0.30;;;;;;;16.26;46.87;101275.25;4967867;28;20057;-69
2023/06/30 09:04:00;;;;;;;7.22;0.30;;;;;;;16.41;46.54;101271.72;4954883;28;20893;-69
2023/06/30 09:06:26;;;;;;;1.60;0.55;;;;;;;16.68;44.86;101273.66;4960598;28;20038;-69
2023/06/30 09:08:59;;;;;;;2.75;0.40;;;;;;;16.90;44.31;101270.63;4938440;28;20046;-70
2023/06/30 09:11:27;;;;;;;2.75;0.25;;;;;;;16.95;42.97;101263.28;4944322;28;20199;-70
2023/06/30 09:14:00;;;;;;;4.43;0.40;;;;;;;16.98;45.03;101266.59;4954097;28;20068;-69
2023/06/30 09:16:26;;;;;;;14.27;11.52;;;;;;;17.59;43.92;101269.03;4973933;28;20077;-69
2023/06/30 09:18:52;;;;;;;1.92;0.90;;;;;;;17.75;42.94;101268.88;4956479;28;20689;-69
2023/06/30 09:21:18;;;;;;;1.73;0.45;;;;;;;18.65;41.35;101267.34;4960663;28;20424;-69
2023/06/30 09:23:43;;;;;;;1.75;0.20;;;;;;;19.19;40.05;101263.66;4953258;28;20553;-69
2023/06/30 09:26:15;;;;;;;1.50;0.20;;;;;;;19.71;39.87;101276.72;4957847;28;20744;-69
2023/06/30 09:28:44;;;;;;;1.65;0.20;;;;;;;22.45;33.59;101266.00;4974968;28;20042;-69
2023/06/30 09:31:11;;;;;;;1.23;0.30;;;;;;;23.37;32.10;101260.75;4957414;28;20031;-70
2023/06/30 09:33:39;;;;;;;3.72;0.20;;;;;;;22.22;33.77;101264.44;4952225;28;20047;-69
2023/06/30 09:36:04;;;;;;;3.15;0.30;;;;;;;22.74;33.21;101262.69;4974997;28;20039;-69
2023/06/30 09:38:30;;;;;;;4.22;0.98;;;;;;;23.50;31.88;101265.84;4959092;28;20041;-70
2023/06/30 09:40:56;;;;;;;0.85;0.20;;;;;;;23.84;30.13;101265.47;4961422;28;20149;-69
2023/06/30 09:43:24;;;;;;;1.90;0.20;;;;;;;24.57;31.04;101265.91;4955231;28;20069;-70
2023/06/30 09:45:55;;;;;;;2.95;0.30;;;;;;;24.71;29.54;101264.59;4954929;28;20034;-70
2023/06/30 09:48:21;;;;;;;0.97;0.40;;;;;;;24.11;30.06;101255.94;4955258;28;20535;-69
2023/06/30 09:50:46;;;;;;;5.78;0.20;;;;;;;23.20;30.06;101256.03;4957170;28;20321;-69
2023/06/30 09:53:18;;;;;;;1.58;0.20;;;;;;;23.98;29.02;101254.38;4973549;28;20051;-69
2023/06/30 09:55:48;;;;;;;2.30;0.43;;;;;;;23.28;29.33;101252.72;4955475;28;20066;-68
2023/06/30 09:58:15;;;;;;;0.70;0.20;;;;;;;23.86;28.71;101257.34;4957956;28;20038;-69
2023/06/30 10:00:41;;;;;;;1.38;0.20;;;;;;;22.88;30.07;101256.19;4953772;28;20741;-69
2023/06/30 10:03:08;;;;;;;3.65;0.30;;;;;;;22.29;30.20;101246.97;4956801;28;20042;-69
2023/06/30 10:05:33;;;;;;;1.30;0.30;;;;;;;20.70;33.34;101246.34;4955244;28;20034;-69
2023/06/30 10:08:02;;;;;;;1.95;0.10;;;;;;;20.69;34.00;101257.09;4954438;28;20439;-69
2023/06/30 10:10:29;;;;;;;0.88;0.13;;;;;;;21.04;33.89;101249.06;4971566;28;20042;-69
2023/06/30 10:12:58;;;;;;;2.72;0.70;;;;;;;20.60;34.01;101258.66;4953312;28;20298;-68
2023/06/30 10:15:25;;;;;;;2.25;0.40;;;;;;;20.31;33.60;101248.44;4957075;28;20125;-69
2023/06/30 10:17:57;;;;;;;2.53;0.20;;;;;;;20.34;34.82;101250.00;4950634;28;20030;-68
2023/06/30 10:20:23;;;;;;;3.92;0.40;;;;;;;20.43;34.30;101251.97;4958042;28;20030;-69
2023/06/30 10:22:49;;;;;;;1.98;0.10;;;;;;;20.01;33.95;101238.28;4951497;28;20030;-69
2023/06/30 10:25:17;;;;;;;2.50;0.30;;;;;;;20.20;34.91;101244.88;4952941;28;20046;-68
2023/06/30 10:27:46;;;;;;;1.52;0.20;;;;;;;21.27;33.52;101241.91;4955776;28;20034;-69
2023/06/30 10:30:12;;;;;;;2.85;0.40;;;;;;;22.06;31.60;101243.53;4957244;28;20639;-69
2023/06/30 10:32:39;;;;;;;1.77;0.55;;;;;;;23.40;29.13;101235.63;4951646;28;20325;-69
2023/06/30 10:35:06;;;;;;;1.73;0.10;;;;;;;23.10;27.63;101231.16;4957585;28;20043;-69
2023/06/30 10:37:33;;;;;;;3.97;0.20;;;;;;;22.74;29.29;101238.69;4959319;28;20053;-69
2023/06/30 10:39:58;;;;;;;1.52;0.50;;;;;;;21.92;30.45;101239.38;4962683;28;20062;-69
2023/06/30 10:42:27;;;;;;;1.38;0.25;;;;;;;21.55;30.69;101229.91;4957768;28;20121;-69
2023/06/30 10:44:57;;;;;;;1.92;0.22;;;;;;;21.07;32.30;101232.88;4976977;28;20081;-69
2023/06/30 10:47:27;;;;;;;1.27;0.30;;;;;;;20.45;34.14;101231.47;4975321;28;20065;-69
2023/06/30 10:49:54;;;;;;;8.38;0.47;;;;;;;20.78;34.19;101245.75;4959046;28;20057;-70
2023/06/30 10:52:29;;;;;;;2.10;0.30;;;;;;;21.14;33.70;101235.91;4956969;28;20046;-69
2023/06/30 10:55:04;;;;;;;0.50;0.20;;;;;;;21.00;33.57;101228.16;4955796;28;20576;-69
2023/06/30 10:57:35;;;;;;;3.33;0.35;;;;;;;20.86;34.00;101234.56;4956576;28;20097;-69
2023/06/30 11:00:06;;;;;;;5.32;0.70;;;;;;;20.24;34.16;101241.03;4959261;28;20526;-68
2023/06/30 11:02:33;;;;;;;1.75;0.20;;;;;;;19.94;34.85;101231.75;4959093;28;20082;-69
2023/06/30 11:05:22;;;;;;;1.80;0.20;;;;;;;20.23;34.37;101234.06;4960357;28;20046;-69
2023/06/30 11:07:54;;;;;;;1.77;0.20;;;;;;;21.36;33.08;101225.22;4975978;28;20068;-69
2023/06/30 11:10:27;;;;;;;6.45;0.25;;;;;;;22.44;30.33;101221.69;4958077;28;20881;-69
2023/06/30 11:12:56;;;;;;;1.33;0.32;;;;;;;22.02;31.04;101216.31;4960434;28;20084;-69
2023/06/30 11:15:26;;;;;;;2.15;0.20;;;;;;;20.96;32.26;101226.72;4960529;28;20255;-69
2023/06/30 11:17:51;;;;;;;0.73;0.15;;;;;;;20.48;33.48;101225.91;4959238;28;20050;-69
2023/06/30 11:20:18;;;;;;;0.90;0.30;;;;;;;20.30;35.13;101227.31;4960719;28;20031;-70
2023/06/30 11:23:06;;;;;;;1.70;0.20;;;;;;;20.33;34.47;101227.09;4959630;28;20291;-69
2023/06/30 11:25:33;;;;;;;4.25;0.22;;;;;;;20.70;33.54;101232.22;4972436;28;20064;-69
2023/06/30 11:28:04;;;;;;;5.45;0.30;;;;;;;20.99;33.47;101218.50;4960968;28;20630;-69